createdAt,value
2018-12-13T00:00:46.797Z,91.60
2018-12-13T00:03:16.837Z,91.60
2018-12-13T00:05:46.901Z,91.50
2018-12-13T00:08:14.806Z,91.50
2018-12-13T00:10:44.634Z,91.50
2018-12-13T00:13:12.474Z,91.50
2018-12-13T00:15:40.448Z,91.30
2018-12-13T00:18:08.472Z,91.70
2018-12-13T00:20:36.493Z,91.60
2018-12-13T00:23:04.657Z,91.50
2018-12-13T00:25:32.591Z,91.50
2018-12-13T00:28:00.454Z,91.50
2018-12-13T00:30:32.890Z,91.30
2018-12-13T00:33:01.106Z,91.20
2018-12-13T00:35:29.013Z,91.10
2018-12-13T00:37:57.130Z,91.10
2018-12-13T00:40:25.007Z,91.00
2018-12-13T00:42:52.811Z,91.00
2018-12-13T00:45:20.612Z,91.00
2018-12-13T00:47:48.512Z,91.10
2018-12-13T00:50:17.309Z,91.30
2018-12-13T00:52:45.374Z,91.20
2018-12-13T00:55:13.328Z,91.20
2018-12-13T00:57:44.619Z,91.20
2018-12-13T01:00:12.764Z,91.20
2018-12-13T01:02:41.577Z,91.30
2018-12-13T01:05:09.826Z,91.20
2018-12-13T01:07:37.816Z,91.30
2018-12-13T01:10:06.281Z,91.20
2018-12-13T01:12:34.236Z,91.20
2018-12-13T01:15:02.308Z,91.10
2018-12-13T01:17:31.489Z,91.30
2018-12-13T01:20:00.553Z,91.10
2018-12-13T01:22:29.635Z,91.10
2018-12-13T01:24:57.711Z,91.00
2018-12-13T01:27:25.508Z,91.00
2018-12-13T01:29:53.315Z,90.90
2018-12-13T01:32:21.213Z,90.90
2018-12-13T01:34:49.096Z,91.00
2018-12-13T01:37:17.664Z,91.00
2018-12-13T01:39:45.659Z,91.20
2018-12-13T01:42:13.624Z,90.90
2018-12-13T01:44:41.460Z,91.40
2018-12-13T01:47:09.295Z,91.70
2018-12-13T01:49:37.238Z,91.80
2018-12-13T01:52:05.309Z,91.80
2018-12-13T01:54:33.234Z,91.90
2018-12-13T01:57:01.193Z,92.00
2018-12-13T01:59:29.153Z,92.00
2018-12-13T02:01:57.124Z,92.00
2018-12-13T02:04:24.941Z,91.80
2018-12-13T02:06:58.549Z,91.80
2018-12-13T02:09:23.220Z,91.70
2018-12-13T02:11:51.019Z,91.70
2018-12-13T02:14:18.951Z,91.90
2018-12-13T02:16:50.100Z,91.90
2018-12-13T02:19:17.840Z,91.90
2018-12-13T02:21:45.766Z,91.80
2018-12-13T02:24:13.817Z,91.80
2018-12-13T02:26:41.836Z,91.80
2018-12-13T02:29:09.740Z,91.80
2018-12-13T02:31:37.664Z,91.90
2018-12-13T02:34:05.542Z,91.70
2018-12-13T02:36:33.519Z,91.70
2018-12-13T02:39:01.559Z,91.70
2018-12-13T02:41:31.439Z,91.80
2018-12-13T02:43:59.297Z,91.70
2018-12-13T02:46:27.283Z,91.60
2018-12-13T02:49:10.499Z,91.60
2018-12-13T02:51:38.361Z,91.60
2018-12-13T02:54:06.158Z,91.60
2018-12-13T02:56:34.056Z,91.60
2018-12-13T02:59:01.961Z,91.60
2018-12-13T03:01:34.704Z,91.70
2018-12-13T03:04:08.653Z,91.70
2018-12-13T03:06:36.716Z,91.80
2018-12-13T03:09:07.649Z,91.60
2018-12-13T03:11:37.694Z,91.70
2018-12-13T03:14:05.582Z,91.60
2018-12-13T03:16:33.516Z,91.50
2018-12-13T03:19:01.428Z,91.50
2018-12-13T03:21:29.334Z,91.60
2018-12-13T03:23:57.416Z,91.50
2018-12-13T03:26:25.337Z,91.50
2018-12-13T03:28:53.285Z,91.60
2018-12-13T03:31:21.086Z,91.60
2018-12-13T03:33:48.901Z,91.70
2018-12-13T03:36:16.769Z,91.60
2018-12-13T03:38:44.540Z,91.60
2018-12-13T03:41:12.332Z,91.60
2018-12-13T03:43:40.554Z,91.50
2018-12-13T03:46:08.444Z,91.50
2018-12-13T03:48:36.385Z,91.60
2018-12-13T03:51:05.671Z,91.60
2018-12-13T03:53:33.649Z,91.60
2018-12-13T03:56:02.675Z,91.70
2018-12-13T03:58:30.576Z,91.70
2018-12-13T04:00:58.389Z,91.50
2018-12-13T04:03:29.045Z,91.50
2018-12-13T04:05:57.321Z,91.60
2018-12-13T04:08:25.148Z,91.50
2018-12-13T04:10:53.119Z,91.50
2018-12-13T04:13:21.471Z,91.50
2018-12-13T04:15:49.508Z,91.50
2018-12-13T04:18:17.406Z,91.40
2018-12-13T04:20:47.372Z,91.50
2018-12-13T04:23:15.176Z,91.50
2018-12-13T04:25:43.001Z,91.50
2018-12-13T04:28:10.956Z,91.50
2018-12-13T04:30:38.831Z,91.50
2018-12-13T04:33:06.690Z,91.50
2018-12-13T04:35:34.715Z,91.60
2018-12-13T04:38:02.943Z,91.60
2018-12-13T04:40:30.772Z,91.70
2018-12-13T04:42:58.825Z,91.60
2018-12-13T04:45:27.706Z,91.50
2018-12-13T04:47:55.589Z,91.50
2018-12-13T04:50:23.898Z,91.50
2018-12-13T04:52:52.497Z,91.50
2018-12-13T04:55:20.282Z,91.50
2018-12-13T04:57:48.219Z,91.50
2018-12-13T05:00:16.293Z,91.50
2018-12-13T05:02:44.182Z,91.70
2018-12-13T05:05:12.053Z,91.40
2018-12-13T05:07:41.923Z,91.50
2018-12-13T05:10:23.404Z,91.50
2018-12-13T05:12:51.233Z,91.50
2018-12-13T05:15:19.009Z,91.50
2018-12-13T05:17:48.286Z,91.50
2018-12-13T05:20:16.057Z,91.40
2018-12-13T05:22:43.872Z,91.40
2018-12-13T05:25:11.999Z,91.40
2018-12-13T05:27:39.803Z,91.40
2018-12-13T05:30:07.743Z,91.40
2018-12-13T05:32:35.658Z,91.40
2018-12-13T05:35:03.885Z,91.40
2018-12-13T05:37:31.990Z,91.40
2018-12-13T05:40:00.052Z,91.30
2018-12-13T05:42:28.097Z,91.40
2018-12-13T05:44:55.966Z,91.30
2018-12-13T05:47:23.891Z,91.40
2018-12-13T05:49:51.763Z,91.70
2018-12-13T05:52:20.718Z,91.60
2018-12-13T05:54:48.894Z,91.60
2018-12-13T05:57:17.064Z,91.60
2018-12-13T05:59:45.048Z,91.50
2018-12-13T06:02:12.941Z,91.60
2018-12-13T06:04:40.971Z,91.50
2018-12-13T06:07:09.863Z,91.60
2018-12-13T06:09:37.836Z,91.60
2018-12-13T06:12:05.624Z,91.60
2018-12-13T06:14:33.510Z,91.50
2018-12-13T06:17:01.421Z,91.50
2018-12-13T06:19:29.228Z,91.50
2018-12-13T06:21:57.312Z,91.60
2018-12-13T06:24:25.224Z,91.50
2018-12-13T06:26:53.004Z,91.50
2018-12-13T06:29:20.972Z,91.40
2018-12-13T06:31:48.797Z,91.40
2018-12-13T06:34:16.669Z,91.40
2018-12-13T06:36:44.521Z,91.80
2018-12-13T06:39:12.325Z,91.50
2018-12-13T06:41:40.141Z,91.50
2018-12-13T06:44:07.982Z,91.50
2018-12-13T06:46:35.836Z,91.50
2018-12-13T06:49:03.780Z,91.50
2018-12-13T06:51:31.751Z,91.60
2018-12-13T06:54:00.154Z,91.70
2018-12-13T06:56:28.113Z,91.50
2018-12-13T06:58:55.916Z,91.60
2018-12-13T07:01:23.822Z,91.50
2018-12-13T07:03:51.924Z,91.60
2018-12-13T07:06:20.734Z,91.60
2018-12-13T07:08:48.573Z,91.70
2018-12-13T07:11:16.460Z,91.70
2018-12-13T07:13:44.244Z,91.50
2018-12-13T07:16:12.140Z,91.50
2018-12-13T07:18:39.965Z,91.60
2018-12-13T07:21:07.800Z,91.70
2018-12-13T07:23:35.726Z,91.40
2018-12-13T07:26:03.754Z,91.50
2018-12-13T07:28:31.595Z,91.30
2018-12-13T07:30:59.449Z,91.40
2018-12-13T07:33:27.543Z,91.80
2018-12-13T07:35:55.518Z,91.60
2018-12-13T07:38:23.465Z,91.60
2018-12-13T07:40:51.437Z,91.40
2018-12-13T07:43:19.309Z,91.50
2018-12-13T07:45:47.072Z,91.60
2018-12-13T07:48:17.384Z,91.60
2018-12-13T07:50:45.160Z,91.60
2018-12-13T07:53:13.109Z,91.80
2018-12-13T07:55:40.986Z,91.50
2018-12-13T07:58:08.824Z,91.80
2018-12-13T08:00:36.696Z,91.40
2018-12-13T08:03:04.511Z,91.40
2018-12-13T08:05:32.602Z,91.30
2018-12-13T08:08:00.436Z,91.40
2018-12-13T08:10:28.229Z,91.30
2018-12-13T08:12:56.167Z,91.30
2018-12-13T08:15:24.506Z,91.40
2018-12-13T08:17:52.262Z,91.30
2018-12-13T08:20:22.184Z,91.30
2018-12-13T08:22:50.247Z,91.50
2018-12-13T08:25:18.189Z,91.40
2018-12-13T08:27:46.052Z,91.30
2018-12-13T08:30:13.845Z,91.30
2018-12-13T08:32:41.799Z,91.30
2018-12-13T08:35:09.582Z,91.10
2018-12-13T08:39:57.980Z,91.20
2018-12-13T08:42:25.972Z,91.30
2018-12-13T08:44:53.865Z,91.20
2018-12-13T08:47:21.712Z,91.30
2018-12-13T08:49:49.503Z,91.10
2018-12-13T08:52:17.263Z,91.30
2018-12-13T08:54:45.109Z,91.30
2018-12-13T08:57:13.293Z,91.30
2018-12-13T08:59:49.628Z,91.90
2018-12-13T09:02:17.497Z,91.40
2018-12-13T09:04:45.247Z,91.30
2018-12-13T09:07:13.127Z,91.40
2018-12-13T09:09:41.165Z,91.30
2018-12-13T09:12:09.045Z,91.70
2018-12-13T09:14:37.005Z,91.40
2018-12-13T09:17:05.067Z,91.30
2018-12-13T09:19:32.876Z,91.40
2018-12-13T09:22:00.749Z,91.40
2018-12-13T09:24:28.578Z,91.70
2018-12-13T09:26:56.357Z,91.40
2018-12-13T09:29:24.116Z,91.30
2018-12-13T09:31:52.257Z,91.40
2018-12-13T09:34:20.115Z,91.50
2018-12-13T09:36:47.978Z,91.40
2018-12-13T09:39:15.870Z,91.40
2018-12-13T09:41:43.661Z,91.30
2018-12-13T09:44:14.237Z,91.40
2018-12-13T09:46:42.068Z,91.40
2018-12-13T09:49:09.866Z,91.50
2018-12-13T09:51:37.806Z,91.40
2018-12-13T09:54:05.709Z,91.20
2018-12-13T09:56:33.649Z,91.40
2018-12-13T09:59:01.398Z,91.30
2018-12-13T10:01:31.046Z,91.40
2018-12-13T10:03:58.939Z,91.40
2018-12-13T10:06:26.804Z,91.50
2018-12-13T10:08:55.137Z,91.60
2018-12-13T10:11:23.029Z,91.60
2018-12-13T10:13:50.777Z,91.70
2018-12-13T10:16:18.725Z,91.70
2018-12-13T10:18:46.677Z,91.70
2018-12-13T10:21:14.647Z,91.80
2018-12-13T10:23:44.164Z,91.70
2018-12-13T10:26:12.137Z,91.70
2018-12-13T10:28:40.261Z,91.70
2018-12-13T10:31:08.060Z,91.80
2018-12-13T10:33:35.849Z,91.70
2018-12-13T10:36:03.988Z,91.80
2018-12-13T10:38:31.876Z,91.90
2018-12-13T10:40:59.817Z,91.80
2018-12-13T10:43:28.846Z,91.90
2018-12-13T10:45:56.884Z,91.90
2018-12-13T10:48:24.644Z,91.90
2018-12-13T10:50:52.597Z,91.90
2018-12-13T10:53:20.731Z,91.90
2018-12-13T10:55:48.771Z,92.00
2018-12-13T10:58:16.584Z,92.50
2018-12-13T11:00:50.445Z,92.20
2018-12-13T11:03:25.217Z,92.10
2018-12-13T11:05:53.314Z,92.10
2018-12-13T11:08:21.304Z,92.10
2018-12-13T11:10:49.466Z,92.00
2018-12-13T11:13:17.421Z,92.30
2018-12-13T11:15:45.516Z,91.90
2018-12-13T11:18:13.484Z,92.00
2018-12-13T11:20:42.832Z,92.00
2018-12-13T11:23:10.746Z,92.00
2018-12-13T11:25:38.929Z,91.90
2018-12-13T11:29:26.634Z,92.10
2018-12-13T11:31:54.637Z,92.20
2018-12-13T11:34:22.620Z,91.90
2018-12-13T11:36:51.041Z,92.10
2018-12-13T11:39:19.238Z,92.00
2018-12-13T11:41:47.236Z,92.20
2018-12-13T11:44:15.265Z,92.10
2018-12-13T11:46:43.313Z,92.10
2018-12-13T11:49:12.319Z,92.30
2018-12-13T11:51:40.277Z,92.20
2018-12-13T11:54:39.173Z,92.10
2018-12-13T11:57:07.121Z,92.10
2018-12-13T11:59:35.236Z,92.00
2018-12-13T12:02:03.553Z,92.00
2018-12-13T12:04:31.345Z,92.10
2018-12-13T12:06:59.302Z,92.10
2018-12-13T12:09:27.085Z,92.20
2018-12-13T12:11:55.011Z,92.20
2018-12-13T12:14:25.904Z,92.20
2018-12-13T12:16:53.914Z,92.30
2018-12-13T12:19:21.759Z,92.40
2018-12-13T12:21:49.688Z,92.20
2018-12-13T12:24:17.464Z,92.10
2018-12-13T12:26:45.570Z,92.10
2018-12-13T12:29:13.333Z,92.00
2018-12-13T12:31:41.564Z,92.10
2018-12-13T12:34:09.655Z,92.20
2018-12-13T12:36:37.578Z,92.10
2018-12-13T12:39:06.944Z,92.20
2018-12-13T12:41:36.853Z,92.10
2018-12-13T12:44:04.771Z,92.10
2018-12-13T12:46:45.521Z,92.10
2018-12-13T12:49:18.581Z,92.10
2018-12-13T12:51:46.503Z,92.00
2018-12-13T12:54:14.420Z,92.20
2018-12-13T12:56:43.272Z,92.10
2018-12-13T12:59:11.278Z,92.10
2018-12-13T13:01:39.297Z,91.90
2018-12-13T13:04:07.389Z,91.90
2018-12-13T13:06:35.617Z,91.90
2018-12-13T13:09:07.501Z,92.00
2018-12-13T13:11:37.329Z,91.90
2018-12-13T13:14:05.508Z,91.90
2018-12-13T13:16:33.336Z,91.90
2018-12-13T13:19:02.745Z,91.90
2018-12-13T13:21:34.136Z,91.90
2018-12-13T13:24:02.069Z,92.00
2018-12-13T13:26:30.096Z,92.00
2018-12-13T13:28:58.337Z,91.90
2018-12-13T13:31:26.216Z,91.90
2018-12-13T13:33:54.030Z,92.00
2018-12-13T13:36:21.915Z,92.00
2018-12-13T13:38:49.789Z,92.00
2018-12-13T13:41:21.737Z,91.90
2018-12-13T13:43:49.613Z,91.90
2018-12-13T13:46:17.695Z,92.00
2018-12-13T13:48:49.695Z,92.30
2018-12-13T13:51:18.913Z,92.00
2018-12-13T13:53:46.793Z,92.10
2018-12-13T13:56:17.212Z,92.20
2018-12-13T13:58:45.149Z,92.20
2018-12-13T14:01:13.512Z,92.20
2018-12-13T14:03:43.607Z,92.20
2018-12-13T14:06:11.477Z,92.20
2018-12-13T14:08:39.366Z,92.30
2018-12-13T14:11:11.555Z,92.20
2018-12-13T14:13:43.861Z,92.20
2018-12-13T14:16:12.262Z,92.20
2018-12-13T14:18:40.293Z,92.30
2018-12-13T14:21:11.302Z,92.30
2018-12-13T14:23:39.470Z,92.40
2018-12-13T14:26:07.730Z,92.50
2018-12-13T14:28:37.405Z,92.50
2018-12-13T14:31:06.600Z,92.60
2018-12-13T14:33:34.818Z,92.50
2018-12-13T14:36:02.733Z,92.50
2018-12-13T14:38:30.577Z,92.60
2018-12-13T14:41:04.386Z,92.60
2018-12-13T14:43:53.106Z,92.50
2018-12-13T14:46:21.017Z,92.40
2018-12-13T14:48:48.775Z,92.50
2018-12-13T14:51:16.869Z,92.50
2018-12-13T14:53:45.040Z,92.50
2018-12-13T14:56:13.013Z,92.60
2018-12-13T14:58:40.810Z,92.60
2018-12-13T15:01:08.655Z,92.50
2018-12-13T15:03:36.643Z,92.50
2018-12-13T15:06:04.552Z,92.50
2018-12-13T15:08:32.349Z,92.50
2018-12-13T15:11:00.240Z,92.50
2018-12-13T15:13:28.090Z,92.50
2018-12-13T15:15:56.178Z,92.60
2018-12-13T15:18:24.137Z,92.60
2018-12-13T15:20:52.142Z,92.60
2018-12-13T15:23:19.924Z,92.60
2018-12-13T15:25:47.901Z,92.70
2018-12-13T15:28:16.007Z,92.70
2018-12-13T15:30:43.949Z,92.80
2018-12-13T15:33:11.993Z,92.80
2018-12-13T15:35:39.924Z,92.70
2018-12-13T15:38:08.061Z,93.00
2018-12-13T15:40:35.917Z,92.70
2018-12-13T15:43:03.843Z,92.70
2018-12-13T15:45:31.877Z,92.70
2018-12-13T15:48:02.085Z,92.60
2018-12-13T15:50:30.097Z,92.60
2018-12-13T15:52:57.908Z,92.70
2018-12-13T15:55:27.021Z,92.60
2018-12-13T15:57:55.129Z,92.60
2018-12-13T16:00:22.939Z,92.60
2018-12-13T16:02:50.916Z,92.60
2018-12-13T16:05:19.058Z,92.70
2018-12-13T16:07:47.000Z,92.70
2018-12-13T16:10:14.994Z,92.70
2018-12-13T16:12:42.775Z,92.80
2018-12-13T16:15:10.726Z,92.90
2018-12-13T16:17:38.658Z,92.90
2018-12-13T16:20:08.973Z,92.80
2018-12-13T16:22:44.280Z,92.80
2018-12-13T16:25:12.982Z,92.90
2018-12-13T16:27:41.022Z,92.90
2018-12-13T16:30:09.974Z,92.90
2018-12-13T16:32:38.290Z,92.90
2018-12-13T16:35:06.501Z,92.80
2018-12-13T16:37:38.467Z,92.80
2018-12-13T16:40:10.381Z,92.80
2018-12-13T16:42:37.031Z,92.80
2018-12-13T16:45:05.808Z,92.90
2018-12-13T16:47:33.905Z,92.80
2018-12-13T16:50:01.817Z,92.80
2018-12-13T16:52:31.183Z,92.80
2018-12-13T16:54:59.194Z,92.80
2018-12-13T16:57:26.964Z,92.70
2018-12-13T16:59:54.898Z,92.80
2018-12-13T17:02:22.814Z,92.80
2018-12-13T17:04:50.956Z,92.90
2018-12-13T17:07:18.903Z,92.80
2018-12-13T17:09:46.930Z,92.80
2018-12-13T17:12:14.790Z,92.80
2018-12-13T17:14:42.903Z,92.80
2018-12-13T17:17:10.930Z,92.70
2018-12-13T17:19:39.559Z,92.80
2018-12-13T17:22:07.364Z,92.70
2018-12-13T17:24:36.024Z,92.70
2018-12-13T17:27:04.268Z,92.80
2018-12-13T17:29:32.115Z,92.80
2018-12-13T17:32:00.092Z,92.70
2018-12-13T17:34:27.919Z,92.60
2018-12-13T17:36:55.944Z,92.70
2018-12-13T17:39:23.796Z,92.70
2018-12-13T17:41:51.653Z,92.60
2018-12-13T17:44:19.954Z,92.60
2018-12-13T17:46:47.736Z,92.60
2018-12-13T17:49:15.561Z,92.60
2018-12-13T17:51:43.423Z,92.70
2018-12-13T17:54:11.480Z,92.60
2018-12-13T17:56:39.367Z,92.60
2018-12-13T17:59:07.267Z,92.60
2018-12-13T18:01:35.366Z,92.60
2018-12-13T18:04:03.607Z,92.60
2018-12-13T18:06:31.505Z,92.60
2018-12-13T18:08:59.747Z,92.60
2018-12-13T18:11:27.611Z,92.70
2018-12-13T18:13:57.124Z,92.70
2018-12-13T18:16:25.804Z,92.60
2018-12-13T18:18:53.953Z,92.60
2018-12-13T18:21:23.188Z,92.60
2018-12-13T18:23:51.291Z,92.50
2018-12-13T18:26:19.467Z,92.70
2018-12-13T18:29:08.095Z,92.50
2018-12-13T18:31:42.571Z,92.50
2018-12-13T18:34:17.072Z,92.30
2018-12-13T18:36:45.288Z,92.50
2018-12-13T18:39:13.144Z,92.50
2018-12-13T18:41:41.278Z,92.50
2018-12-13T18:44:10.639Z,92.50
2018-12-13T18:46:38.705Z,92.50
2018-12-13T18:49:07.160Z,92.50
2018-12-13T18:51:36.067Z,92.50
2018-12-13T18:54:04.122Z,92.50
2018-12-13T18:56:32.065Z,92.50
2018-12-13T18:59:42.355Z,92.40
2018-12-13T19:02:16.505Z,92.40
2018-12-13T19:04:44.578Z,92.50
2018-12-13T19:07:12.714Z,92.50
2018-12-13T19:09:40.649Z,92.60
2018-12-13T19:12:08.696Z,92.70
2018-12-13T19:14:36.582Z,92.70
2018-12-13T19:17:05.271Z,92.70
2018-12-13T19:19:33.518Z,92.80
2018-12-13T19:22:04.593Z,92.90
2018-12-13T19:24:32.528Z,92.90
2018-12-13T19:27:00.561Z,92.80
2018-12-13T19:29:28.697Z,92.90
2018-12-13T19:31:56.690Z,92.90
2018-12-13T19:34:24.531Z,93.00
2018-12-13T19:36:52.547Z,92.80
2018-12-13T19:39:20.543Z,92.70
2018-12-13T19:41:48.544Z,92.80
2018-12-13T19:44:17.402Z,92.80
2018-12-13T19:46:45.412Z,92.80
2018-12-13T19:49:14.051Z,92.80
2018-12-13T19:51:41.889Z,92.80
2018-12-13T19:54:09.756Z,92.80
2018-12-13T19:56:37.728Z,92.70
2018-12-13T19:59:06.241Z,92.70
2018-12-13T20:01:34.111Z,92.70
2018-12-13T20:04:02.068Z,92.70
2018-12-13T20:06:30.382Z,92.70
2018-12-13T20:08:58.486Z,92.60
2018-12-13T20:11:26.518Z,92.60
2018-12-13T20:13:55.620Z,92.50
2018-12-13T20:16:23.513Z,92.50
2018-12-13T20:18:52.471Z,92.50
2018-12-13T20:21:20.338Z,92.50
2018-12-13T20:23:48.409Z,92.50
2018-12-13T20:26:17.606Z,92.50
2018-12-13T20:28:45.845Z,92.50
2018-12-13T20:31:15.158Z,92.50
2018-12-13T20:33:43.231Z,92.50
2018-12-13T20:36:11.834Z,92.50
2018-12-13T20:38:39.981Z,92.50
2018-12-13T20:41:08.137Z,92.60
2018-12-13T20:43:36.285Z,92.50
2018-12-13T20:46:04.454Z,92.50
2018-12-13T20:48:32.259Z,92.50
2018-12-13T20:51:00.752Z,92.50
2018-12-13T20:53:28.672Z,92.50
2018-12-13T20:55:57.157Z,92.50
2018-12-13T20:58:25.225Z,92.50
2018-12-13T21:00:53.491Z,92.50
2018-12-13T21:03:21.502Z,92.40
2018-12-13T21:05:50.759Z,92.40
2018-12-13T21:08:18.710Z,92.50
2018-12-13T21:10:47.653Z,92.60
2018-12-13T21:13:15.948Z,92.60
2018-12-13T21:18:28.153Z,92.50
2018-12-13T21:20:56.266Z,92.60
2018-12-13T21:23:25.069Z,92.60
2018-12-13T21:28:27.503Z,92.60
2018-12-13T21:30:55.588Z,92.60
2018-12-13T21:33:23.613Z,92.50
2018-12-13T21:35:52.231Z,92.50
2018-12-13T21:38:20.152Z,92.50
2018-12-13T21:40:48.124Z,92.60
2018-12-13T21:43:15.958Z,92.60
2018-12-13T21:45:43.814Z,92.60
2018-12-13T21:48:11.903Z,92.80
2018-12-13T21:50:41.261Z,92.70
2018-12-13T21:53:09.430Z,92.70
2018-12-13T21:55:37.511Z,92.70
2018-12-13T21:58:05.505Z,92.70
2018-12-13T22:00:33.515Z,92.70
2018-12-13T22:03:02.319Z,92.70
2018-12-13T22:05:30.934Z,92.70
2018-12-13T22:07:59.064Z,92.70
2018-12-13T22:10:28.489Z,92.70
2018-12-13T22:12:56.381Z,92.80
2018-12-13T22:15:24.482Z,92.80
2018-12-13T22:17:52.336Z,92.70
2018-12-13T22:20:20.366Z,92.70
2018-12-13T22:22:48.640Z,92.80
2018-12-13T22:25:16.517Z,92.80
2018-12-13T22:27:44.361Z,92.70
2018-12-13T22:30:12.361Z,92.60
2018-12-13T22:32:40.301Z,92.70
2018-12-13T22:35:08.291Z,92.70
2018-12-13T22:37:36.171Z,92.70
2018-12-13T22:40:04.689Z,92.70
2018-12-13T22:42:32.880Z,92.70
2018-12-13T22:45:00.850Z,92.70
2018-12-13T22:47:28.756Z,92.60
2018-12-13T22:49:57.810Z,92.50
2018-12-13T22:52:25.715Z,92.50
2018-12-13T22:54:53.714Z,92.60
2018-12-13T22:57:21.683Z,92.80
2018-12-13T22:59:49.481Z,92.90
2018-12-13T23:02:17.555Z,92.80
2018-12-13T23:04:45.613Z,92.70
2018-12-13T23:07:13.517Z,92.70
2018-12-13T23:09:42.300Z,92.70
2018-12-13T23:12:10.345Z,92.80
2018-12-13T23:14:38.532Z,92.70
2018-12-13T23:17:06.860Z,92.70
2018-12-13T23:19:34.762Z,92.70
2018-12-13T23:22:02.632Z,92.70
2018-12-13T23:24:30.942Z,92.70
2018-12-13T23:26:59.096Z,92.70
2018-12-13T23:29:26.940Z,92.80
2018-12-13T23:31:55.025Z,92.70
2018-12-13T23:34:22.984Z,92.80
2018-12-13T23:36:50.862Z,92.70
2018-12-13T23:39:18.748Z,92.70
2018-12-13T23:41:46.864Z,92.70
2018-12-13T23:44:16.686Z,92.80
2018-12-13T23:46:44.713Z,92.80
2018-12-13T23:49:12.543Z,92.80
2018-12-13T23:51:47.096Z,92.70
2018-12-13T23:54:14.940Z,92.70
2018-12-13T23:56:42.761Z,92.70
2018-12-13T23:59:12.733Z,92.70
